sensor_id;sensor_type;location;lat;lon;timestamp;pressure;altitude;pressure_sealevel;temperature;humidity
4705;BME280;2366;51.332;6.610;2023-11-21T00:02:25;100902.91;;;11.94;76.20
4705;BME280;2366;51.332;6.610;2023-11-21T00:04:50;100901.47;;;12.03;76.13
4705;BME280;2366;51.332;6.610;2023-11-21T00:07:16;100908.75;;;12.13;75.86
4705;BME280;2366;51.332;6.610;2023-11-21T00:09:42;100906.63;;;12.19;75.89
4705;BME280;2366;51.332;6.610;2023-11-21T00:12:08;100909.66;;;12.27;76.08
4705;BME280;2366;51.332;6.610;2023-11-21T00:14:37;100911.25;;;12.29;75.71
4705;BME280;2366;51.332;6.610;2023-11-21T00:17:03;100920.94;;;12.30;75.66
4705;BME280;2366;51.332;6.610;2023-11-21T00:19:29;100921.41;;;12.37;75.45
4705;BME280;2366;51.332;6.610;2023-11-21T00:21:54;100925.47;;;12.43;75.78
4705;BME280;2366;51.332;6.610;2023-11-21T00:24:19;100924.19;;;12.48;75.22
4705;BME280;2366;51.332;6.610;2023-11-21T00:26:45;100928.59;;;12.49;75.36
4705;BME280;2366;51.332;6.610;2023-11-21T00:29:12;100929.44;;;12.50;75.07
4705;BME280;2366;51.332;6.610;2023-11-21T00:31:38;100934.53;;;12.53;75.07
4705;BME280;2366;51.332;6.610;2023-11-21T00:34:04;100929.97;;;12.55;74.95
4705;BME280;2366;51.332;6.610;2023-11-21T00:36:30;100935.28;;;12.55;75.10
4705;BME280;2366;51.332;6.610;2023-11-21T00:38:57;100931.69;;;12.56;75.20
4705;BME280;2366;51.332;6.610;2023-11-21T00:41:22;100931.69;;;12.56;74.87
4705;BME280;2366;51.332;6.610;2023-11-21T00:43:47;100928.28;;;12.54;74.92
4705;BME280;2366;51.332;6.610;2023-11-21T00:46:13;100928.19;;;12.56;74.99
4705;BME280;2366;51.332;6.610;2023-11-21T00:48:38;100937.75;;;12.58;74.79
4705;BME280;2366;51.332;6.610;2023-11-21T00:51:04;100929.78;;;12.58;74.95
4705;BME280;2366;51.332;6.610;2023-11-21T00:53:31;100927.00;;;12.60;74.72
4705;BME280;2366;51.332;6.610;2023-11-21T00:55:57;100925.53;;;12.56;74.43
4705;BME280;2366;51.332;6.610;2023-11-21T00:58:26;100924.13;;;12.50;74.57
4705;BME280;2366;51.332;6.610;2023-11-21T01:00:51;100931.25;;;12.49;74.79
4705;BME280;2366;51.332;6.610;2023-11-21T01:03:17;100935.69;;;12.49;74.71
4705;BME280;2366;51.332;6.610;2023-11-21T01:05:42;100934.75;;;12.50;74.51
4705;BME280;2366;51.332;6.610;2023-11-21T01:08:08;100937.59;;;12.47;74.35
4705;BME280;2366;51.332;6.610;2023-11-21T01:10:33;100945.03;;;12.42;74.70
4705;BME280;2366;51.332;6.610;2023-11-21T01:13:02;100950.16;;;12.45;74.33
4705;BME280;2366;51.332;6.610;2023-11-21T01:15:30;100952.69;;;12.46;74.32
4705;BME280;2366;51.332;6.610;2023-11-21T01:17:56;100949.94;;;12.48;74.70
4705;BME280;2366;51.332;6.610;2023-11-21T01:20:21;100954.50;;;12.46;74.63
4705;BME280;2366;51.332;6.610;2023-11-21T01:22:46;100950.88;;;12.47;74.84
4705;BME280;2366;51.332;6.610;2023-11-21T01:25:14;100955.06;;;12.51;74.75
4705;BME280;2366;51.332;6.610;2023-11-21T01:27:41;100955.81;;;12.53;74.55
4705;BME280;2366;51.332;6.610;2023-11-21T01:30:07;100960.09;;;12.56;74.54
4705;BME280;2366;51.332;6.610;2023-11-21T01:32:33;100961.69;;;12.58;74.53
4705;BME280;2366;51.332;6.610;2023-11-21T01:34:59;100957.13;;;12.60;74.61
4705;BME280;2366;51.332;6.610;2023-11-21T01:37:25;100967.66;;;12.62;74.18
4705;BME280;2366;51.332;6.610;2023-11-21T01:39:54;100959.97;;;12.57;74.43
4705;BME280;2366;51.332;6.610;2023-11-21T01:42:22;100961.88;;;12.55;74.86
4705;BME280;2366;51.332;6.610;2023-11-21T01:44:48;100968.72;;;12.59;74.53
4705;BME280;2366;51.332;6.610;2023-11-21T01:47:14;100961.47;;;12.61;74.61
4705;BME280;2366;51.332;6.610;2023-11-21T01:49:44;100965.75;;;12.64;74.17
4705;BME280;2366;51.332;6.610;2023-11-21T01:52:11;100962.44;;;12.60;74.83
4705;BME280;2366;51.332;6.610;2023-11-21T01:54:37;100966.72;;;12.63;74.57
4705;BME280;2366;51.332;6.610;2023-11-21T01:57:03;100971.94;;;12.64;74.35
4705;BME280;2366;51.332;6.610;2023-11-21T01:59:34;100974.38;;;12.67;74.49
4705;BME280;2366;51.332;6.610;2023-11-21T02:02:02;100971.72;;;12.67;74.38
4705;BME280;2366;51.332;6.610;2023-11-21T02:04:30;100972.78;;;12.65;74.39
4705;BME280;2366;51.332;6.610;2023-11-21T02:06:57;100973.63;;;12.65;74.22
4705;BME280;2366;51.332;6.610;2023-11-21T02:09:26;100977.25;;;12.64;74.62
4705;BME280;2366;51.332;6.610;2023-11-21T02:11:53;100969.28;;;12.64;74.65
4705;BME280;2366;51.332;6.610;2023-11-21T02:14:22;100974.47;;;12.66;74.85
4705;BME280;2366;51.332;6.610;2023-11-21T02:16:51;100983.22;;;12.68;74.48
4705;BME280;2366;51.332;6.610;2023-11-21T02:19:21;100980.63;;;12.66;74.84
4705;BME280;2366;51.332;6.610;2023-11-21T02:21:56;100988.53;;;12.68;74.66
4705;BME280;2366;51.332;6.610;2023-11-21T02:24:25;100991.09;;;12.69;74.78
4705;BME280;2366;51.332;6.610;2023-11-21T02:26:52;100996.19;;;12.72;74.76
4705;BME280;2366;51.332;6.610;2023-11-21T02:29:18;100992.47;;;12.75;74.64
4705;BME280;2366;51.332;6.610;2023-11-21T02:31:47;100996.78;;;12.78;74.63
4705;BME280;2366;51.332;6.610;2023-11-21T02:34:16;100994.88;;;12.80;74.44
4705;BME280;2366;51.332;6.610;2023-11-21T02:36:43;100988.56;;;12.81;74.52
4705;BME280;2366;51.332;6.610;2023-11-21T02:39:09;100998.28;;;12.82;74.71
4705;BME280;2366;51.332;6.610;2023-11-21T02:41:37;100994.56;;;12.84;74.46
4705;BME280;2366;51.332;6.610;2023-11-21T02:44:03;100994.66;;;12.83;74.25
4705;BME280;2366;51.332;6.610;2023-11-21T02:46:28;100999.13;;;12.82;74.49
4705;BME280;2366;51.332;6.610;2023-11-21T02:48:53;100999.03;;;12.84;74.76
4705;BME280;2366;51.332;6.610;2023-11-21T02:51:20;100999.03;;;12.84;74.48
4705;BME280;2366;51.332;6.610;2023-11-21T02:53:45;100995.41;;;12.85;74.73
4705;BME280;2366;51.332;6.610;2023-11-21T02:56:12;100997.22;;;12.84;74.54
4705;BME280;2366;51.332;6.610;2023-11-21T02:58:37;100998.91;;;12.85;74.58
4705;BME280;2366;51.332;6.610;2023-11-21T03:01:03;101004.13;;;12.87;74.22
4705;BME280;2366;51.332;6.610;2023-11-21T03:03:30;100999.75;;;12.86;74.41
4705;BME280;2366;51.332;6.610;2023-11-21T03:05:56;101003.28;;;12.86;74.45
4705;BME280;2366;51.332;6.610;2023-11-21T03:08:21;101007.00;;;12.84;74.48
4705;BME280;2366;51.332;6.610;2023-11-21T03:10:46;101003.38;;;12.85;74.58
4705;BME280;2366;51.332;6.610;2023-11-21T03:13:12;101003.38;;;12.85;74.67
4705;BME280;2366;51.332;6.610;2023-11-21T03:15:37;101004.22;;;12.85;74.55
4705;BME280;2366;51.332;6.610;2023-11-21T03:18:03;101012.97;;;12.87;74.55
4705;BME280;2366;51.332;6.610;2023-11-21T03:20:30;101009.47;;;12.87;74.54
4705;BME280;2366;51.332;6.610;2023-11-21T03:22:55;101007.63;;;12.87;74.46
4705;BME280;2366;51.332;6.610;2023-11-21T03:25:20;101024.44;;;12.88;74.60
4705;BME280;2366;51.332;6.610;2023-11-21T03:27:49;101027.03;;;12.89;74.72
4705;BME280;2366;51.332;6.610;2023-11-21T03:30:14;101023.31;;;12.92;74.74
4705;BME280;2366;51.332;6.610;2023-11-21T03:32:40;101035.66;;;12.93;74.69
4705;BME280;2366;51.332;6.610;2023-11-21T03:35:06;101039.09;;;12.95;74.44
4705;BME280;2366;51.332;6.610;2023-11-21T03:37:31;101039.84;;;12.97;74.67
4705;BME280;2366;51.332;6.610;2023-11-21T03:39:57;101040.69;;;12.98;74.61
4705;BME280;2366;51.332;6.610;2023-11-21T03:42:22;101043.44;;;12.96;74.88
4705;BME280;2366;51.332;6.610;2023-11-21T03:44:47;101043.44;;;12.96;74.79
4705;BME280;2366;51.332;6.610;2023-11-21T03:47:13;101043.66;;;12.93;74.62
4705;BME280;2366;51.332;6.610;2023-11-21T03:49:38;101046.31;;;12.93;74.70
4705;BME280;2366;51.332;6.610;2023-11-21T03:52:04;101052.56;;;12.92;74.41
4705;BME280;2366;51.332;6.610;2023-11-21T03:54:30;101049.28;;;12.88;74.61
4705;BME280;2366;51.332;6.610;2023-11-21T03:56:55;101052.88;;;12.87;74.39
4705;BME280;2366;51.332;6.610;2023-11-21T03:59:21;101050.44;;;12.84;74.73
4705;BME280;2366;51.332;6.610;2023-11-21T04:01:49;101044.34;;;12.82;74.32
4705;BME280;2366;51.332;6.610;2023-11-21T04:04:15;101053.28;;;12.81;74.59
4705;BME280;2366;51.332;6.610;2023-11-21T04:06:41;101054.25;;;12.80;74.62
4705;BME280;2366;51.332;6.610;2023-11-21T04:09:06;101052.44;;;12.81;74.97
4705;BME280;2366;51.332;6.610;2023-11-21T04:11:31;101057.75;;;12.81;74.65
4705;BME280;2366;51.332;6.610;2023-11-21T04:13:57;101055.94;;;12.81;74.81
4705;BME280;2366;51.332;6.610;2023-11-21T04:16:22;101063.91;;;12.81;74.93
4705;BME280;2366;51.332;6.610;2023-11-21T04:18:48;101063.06;;;12.81;74.58
4705;BME280;2366;51.332;6.610;2023-11-21T04:21:13;101057.75;;;12.81;74.94
4705;BME280;2366;51.332;6.610;2023-11-21T04:23:38;101056.81;;;12.82;74.88
4705;BME280;2366;51.332;6.610;2023-11-21T04:26:05;101060.50;;;12.79;74.78
4705;BME280;2366;51.332;6.610;2023-11-21T04:28:31;101058.81;;;12.78;74.54
4705;BME280;2366;51.332;6.610;2023-11-21T04:30:56;101058.06;;;12.76;74.50
4705;BME280;2366;51.332;6.610;2023-11-21T04:33:21;101060.94;;;12.73;74.64
4705;BME280;2366;51.332;6.610;2023-11-21T04:35:47;101061.03;;;12.71;74.76
4705;BME280;2366;51.332;6.610;2023-11-21T04:38:13;101068.03;;;12.72;74.89
4705;BME280;2366;51.332;6.610;2023-11-21T04:40:39;101076.00;;;12.72;75.05
4705;BME280;2366;51.332;6.610;2023-11-21T04:43:04;101071.56;;;12.73;75.12
4705;BME280;2366;51.332;6.610;2023-11-21T04:45:29;101076.59;;;12.78;75.04
4705;BME280;2366;51.332;6.610;2023-11-21T04:47:55;101078.72;;;12.85;74.83
4705;BME280;2366;51.332;6.610;2023-11-21T04:50:21;101085.84;;;12.99;74.66
4705;BME280;2366;51.332;6.610;2023-11-21T04:52:46;101084.03;;;13.00;74.49
4705;BME280;2366;51.332;6.610;2023-11-21T04:55:12;101094.22;;;12.93;74.48
4705;BME280;2366;51.332;6.610;2023-11-21T04:57:38;101093.47;;;12.91;74.51
4705;BME280;2366;51.332;6.610;2023-11-21T05:00:03;101090.03;;;12.89;74.74
4705;BME280;2366;51.332;6.610;2023-11-21T05:02:31;101096.59;;;12.83;74.57
4705;BME280;2366;51.332;6.610;2023-11-21T05:04:59;101098.41;;;12.83;74.51
4705;BME280;2366;51.332;6.610;2023-11-21T05:07:25;101103.75;;;12.83;74.50
4705;BME280;2366;51.332;6.610;2023-11-21T05:09:54;101104.59;;;12.83;74.64
4705;BME280;2366;51.332;6.610;2023-11-21T05:12:21;101104.88;;;12.79;74.53
4705;BME280;2366;51.332;6.610;2023-11-21T05:14:47;101109.44;;;12.77;74.83
4705;BME280;2366;51.332;6.610;2023-11-21T05:17:14;101103.38;;;12.74;74.78
4705;BME280;2366;51.332;6.610;2023-11-21T05:19:39;101107.94;;;12.72;74.87
4705;BME280;2366;51.332;6.610;2023-11-21T05:22:05;101108.31;;;12.66;74.70
4705;BME280;2366;51.332;6.610;2023-11-21T05:24:31;101113.56;;;12.68;75.26
4705;BME280;2366;51.332;6.610;2023-11-21T05:26:56;101110.25;;;12.64;75.07
4705;BME280;2366;51.332;6.610;2023-11-21T05:29:22;101122.78;;;12.62;75.24
4705;BME280;2366;51.332;6.610;2023-11-21T05:31:47;101138.75;;;12.62;74.97
4705;BME280;2366;51.332;6.610;2023-11-21T05:34:13;101133.22;;;12.65;75.12
4705;BME280;2366;51.332;6.610;2023-11-21T05:36:38;101134.91;;;12.66;74.91
4705;BME280;2366;51.332;6.610;2023-11-21T05:39:04;101142.63;;;12.71;74.85
4705;BME280;2366;51.332;6.610;2023-11-21T05:41:29;101146.91;;;12.73;74.98
4705;BME280;2366;51.332;6.610;2023-11-21T05:43:55;101150.31;;;12.76;75.09
4705;BME280;2366;51.332;6.610;2023-11-21T05:46:20;101143.47;;;12.71;74.77
4705;BME280;2366;51.332;6.610;2023-11-21T05:48:46;101165.91;;;12.67;75.28
4705;BME280;2366;51.332;6.610;2023-11-21T05:51:12;101159.16;;;12.62;75.32
4705;BME280;2366;51.332;6.610;2023-11-21T05:53:39;101166.50;;;12.58;75.69
4705;BME280;2366;51.332;6.610;2023-11-21T05:56:04;101165.16;;;12.65;75.32
4705;BME280;2366;51.332;6.610;2023-11-21T05:58:30;101167.59;;;12.68;75.39
4705;BME280;2366;51.332;6.610;2023-11-21T06:00:55;101171.78;;;12.72;75.21
4705;BME280;2366;51.332;6.610;2023-11-21T06:03:21;101170.84;;;12.73;74.99
4705;BME280;2366;51.332;6.610;2023-11-21T06:05:46;101179.22;;;12.67;74.80
4705;BME280;2366;51.332;6.610;2023-11-21T06:08:11;101177.69;;;12.63;74.87
4705;BME280;2366;51.332;6.610;2023-11-21T06:10:37;101184.91;;;12.61;75.41
4705;BME280;2366;51.332;6.610;2023-11-21T06:13:02;101184.91;;;12.61;75.11
4705;BME280;2366;51.332;6.610;2023-11-21T06:15:29;101191.06;;;12.62;75.32
4705;BME280;2366;51.332;6.610;2023-11-21T06:17:55;101191.84;;;12.64;75.31
4705;BME280;2366;51.332;6.610;2023-11-21T06:20:21;101195.47;;;12.63;75.39
4705;BME280;2366;51.332;6.610;2023-11-21T06:22:49;101199.81;;;12.64;75.32
4705;BME280;2366;51.332;6.610;2023-11-21T06:25:15;101199.44;;;12.70;75.28
4705;BME280;2366;51.332;6.610;2023-11-21T06:27:42;101199.06;;;12.76;75.18
4705;BME280;2366;51.332;6.610;2023-11-21T06:30:08;101199.72;;;12.80;75.05
4705;BME280;2366;51.332;6.610;2023-11-21T06:32:38;101204.09;;;12.81;74.75
4705;BME280;2366;51.332;6.610;2023-11-21T06:35:05;101206.75;;;12.81;74.81
4705;BME280;2366;51.332;6.610;2023-11-21T06:37:31;101211.22;;;12.80;74.88
4705;BME280;2366;51.332;6.610;2023-11-21T06:39:58;101212.84;;;12.83;75.01
4705;BME280;2366;51.332;6.610;2023-11-21T06:42:24;101213.78;;;12.82;74.73
4705;BME280;2366;51.332;6.610;2023-11-21T06:44:50;101228.50;;;12.87;74.74
4705;BME280;2366;51.332;6.610;2023-11-21T06:47:25;101229.34;;;12.88;74.77
4705;BME280;2366;51.332;6.610;2023-11-21T06:49:51;101237.63;;;12.83;74.83
4705;BME280;2366;51.332;6.610;2023-11-21T06:52:17;101239.53;;;12.81;74.87
4705;BME280;2366;51.332;6.610;2023-11-21T06:54:43;101240.19;;;12.85;75.04
4705;BME280;2366;51.332;6.610;2023-11-21T06:57:09;101241.63;;;12.90;74.94
4705;BME280;2366;51.332;6.610;2023-11-21T06:59:34;101247.50;;;12.95;74.79
4705;BME280;2366;51.332;6.610;2023-11-21T07:01:59;101250.09;;;12.97;74.63
4705;BME280;2366;51.332;6.610;2023-11-21T07:04:25;101256.34;;;12.96;74.78
4705;BME280;2366;51.332;6.610;2023-11-21T07:06:53;101260.53;;;13.00;74.51
4705;BME280;2366;51.332;6.610;2023-11-21T07:09:19;101259.75;;;12.98;74.59
4705;BME280;2366;51.332;6.610;2023-11-21T07:11:50;101269.06;;;13.05;74.56
4705;BME280;2366;51.332;6.610;2023-11-21T07:14:15;101263.56;;;13.08;74.28
4705;BME280;2366;51.332;6.610;2023-11-21T07:16:42;101272.50;;;13.07;74.02
4705;BME280;2366;51.332;6.610;2023-11-21T07:19:07;101271.72;;;13.05;74.15
4705;BME280;2366;51.332;6.610;2023-11-21T07:21:33;101269.94;;;13.06;73.80
4705;BME280;2366;51.332;6.610;2023-11-21T07:24:02;101269.19;;;13.04;73.81
4705;BME280;2366;51.332;6.610;2023-11-21T07:26:29;101270.78;;;13.06;73.89
4705;BME280;2366;51.332;6.610;2023-11-21T07:28:54;101267.38;;;13.04;73.90
4705;BME280;2366;51.332;6.610;2023-11-21T07:31:20;101278.78;;;13.06;73.58
4705;BME280;2366;51.332;6.610;2023-11-21T07:33:47;101282.19;;;13.08;73.76
4705;BME280;2366;51.332;6.610;2023-11-21T07:36:15;101287.44;;;13.10;73.62
4705;BME280;2366;51.332;6.610;2023-11-21T07:38:43;101285.03;;;13.05;73.64
4705;BME280;2366;51.332;6.610;2023-11-21T07:41:09;101283.53;;;13.01;73.85
4705;BME280;2366;51.332;6.610;2023-11-21T07:43:35;101287.34;;;12.97;73.91
4705;BME280;2366;51.332;6.610;2023-11-21T07:46:01;101295.22;;;12.99;74.10
4705;BME280;2366;51.332;6.610;2023-11-21T07:48:31;101307.09;;;13.07;74.01
4705;BME280;2366;51.332;6.610;2023-11-21T07:50:57;101296.47;;;12.93;74.06
4705;BME280;2366;51.332;6.610;2023-11-21T07:53:24;101303.22;;;13.13;74.13
4705;BME280;2366;51.332;6.610;2023-11-21T07:55:51;101312.72;;;13.31;73.53
4705;BME280;2366;51.332;6.610;2023-11-21T07:58:16;101313.56;;;13.46;73.59
4705;BME280;2366;51.332;6.610;2023-11-21T08:00:41;101323.78;;;13.67;73.23
4705;BME280;2366;51.332;6.610;2023-11-21T08:03:07;101325.09;;;13.74;72.75
4705;BME280;2366;51.332;6.610;2023-11-21T08:05:32;101332.91;;;13.77;72.49
4705;BME280;2366;51.332;6.610;2023-11-21T08:07:58;101335.16;;;13.83;72.46
4705;BME280;2366;51.332;6.610;2023-11-21T08:10:23;101342.00;;;13.87;72.50
4705;BME280;2366;51.332;6.610;2023-11-21T08:12:48;101343.41;;;13.93;72.18
4705;BME280;2366;51.332;6.610;2023-11-21T08:15:15;101346.53;;;14.00;71.72
4705;BME280;2366;51.332;6.610;2023-11-21T08:17:41;101350.25;;;13.97;71.47
4705;BME280;2366;51.332;6.610;2023-11-21T08:20:06;101339.69;;;13.95;71.42
4705;BME280;2366;51.332;6.610;2023-11-21T08:22:33;101348.44;;;13.97;71.33
4705;BME280;2366;51.332;6.610;2023-11-21T08:24:59;101356.69;;;13.80;71.54
4705;BME280;2366;51.332;6.610;2023-11-21T08:27:25;101356.69;;;13.80;71.79
4705;BME280;2366;51.332;6.610;2023-11-21T08:29:50;101355.84;;;13.80;71.42
4705;BME280;2366;51.332;6.610;2023-11-21T08:32:17;101366.94;;;13.86;71.83
4705;BME280;2366;51.332;6.610;2023-11-21T08:34:43;101367.56;;;13.77;71.47
4705;BME280;2366;51.332;6.610;2023-11-21T08:37:09;101370.00;;;13.80;71.60
4705;BME280;2366;51.332;6.610;2023-11-21T08:39:37;101369.63;;;13.86;70.96
4705;BME280;2366;51.332;6.610;2023-11-21T08:42:03;101364.53;;;13.54;70.68
4705;BME280;2366;51.332;6.610;2023-11-21T08:44:29;101372.72;;;13.37;72.06
4705;BME280;2366;51.332;6.610;2023-11-21T08:46:55;101373.19;;;13.44;72.31
4705;BME280;2366;51.332;6.610;2023-11-21T08:49:21;101379.38;;;13.59;72.17
4705;BME280;2366;51.332;6.610;2023-11-21T08:51:46;101381.75;;;13.63;71.67
4705;BME280;2366;51.332;6.610;2023-11-21T08:54:11;101388.00;;;13.76;71.58
4705;BME280;2366;51.332;6.610;2023-11-21T08:56:37;101393.59;;;13.86;71.38
4705;BME280;2366;51.332;6.610;2023-11-21T08:59:03;101393.00;;;13.95;71.24
4705;BME280;2366;51.332;6.610;2023-11-21T09:01:29;101397.31;;;13.84;69.75
4705;BME280;2366;51.332;6.610;2023-11-21T09:03:59;101403.13;;;13.76;70.84
4705;BME280;2366;51.332;6.610;2023-11-21T09:06:25;101403.22;;;13.89;71.21
4705;BME280;2366;51.332;6.610;2023-11-21T09:08:50;101414.72;;;13.89;70.75
4705;BME280;2366;51.332;6.610;2023-11-21T09:11:15;101405.72;;;13.77;69.77
4705;BME280;2366;51.332;6.610;2023-11-21T09:13:41;101420.34;;;13.85;70.63
4705;BME280;2366;51.332;6.610;2023-11-21T09:16:07;101423.09;;;13.97;70.81
4705;BME280;2366;51.332;6.610;2023-11-21T09:18:32;101422.31;;;14.10;70.77
4705;BME280;2366;51.332;6.610;2023-11-21T09:20:58;101428.94;;;14.17;70.40
4705;BME280;2366;51.332;6.610;2023-11-21T09:23:24;101427.69;;;14.23;70.31
4705;BME280;2366;51.332;6.610;2023-11-21T09:25:49;101431.22;;;14.23;69.89
4705;BME280;2366;51.332;6.610;2023-11-21T09:28:17;101429.31;;;14.11;69.37
4705;BME280;2366;51.332;6.610;2023-11-21T09:30:43;101440.78;;;13.98;69.83
4705;BME280;2366;51.332;6.610;2023-11-21T09:33:09;101442.50;;;14.00;70.78
4705;BME280;2366;51.332;6.610;2023-11-21T09:35:37;101445.88;;;14.16;70.55
4705;BME280;2366;51.332;6.610;2023-11-21T09:38:03;101448.66;;;14.14;69.55
4705;BME280;2366;51.332;6.610;2023-11-21T09:40:30;101453.69;;;14.19;69.85
4705;BME280;2366;51.332;6.610;2023-11-21T09:42:57;101448.34;;;14.19;69.60
4705;BME280;2366;51.332;6.610;2023-11-21T09:45:32;101456.34;;;14.19;70.04
4705;BME280;2366;51.332;6.610;2023-11-21T09:47:59;101453.69;;;14.19;69.19
4705;BME280;2366;51.332;6.610;2023-11-21T09:50:26;101455.63;;;14.03;69.01
4705;BME280;2366;51.332;6.610;2023-11-21T09:52:58;101462.38;;;14.08;69.58
4705;BME280;2366;51.332;6.610;2023-11-21T09:55:27;101458.81;;;14.22;69.50
4705;BME280;2366;51.332;6.610;2023-11-21T09:57:57;101459.13;;;14.45;69.42
4705;BME280;2366;51.332;6.610;2023-11-21T10:00:23;101452.59;;;14.63;68.94
4705;BME280;2366;51.332;6.610;2023-11-21T10:02:49;101461.69;;;14.46;67.62
4705;BME280;2366;51.332;6.610;2023-11-21T10:05:15;101462.59;;;14.32;68.07
4705;BME280;2366;51.332;6.610;2023-11-21T10:07:43;101461.31;;;14.11;68.32
4705;BME280;2366;51.332;6.610;2023-11-21T10:10:10;101464.44;;;13.90;69.49
4705;BME280;2366;51.332;6.610;2023-11-21T10:12:36;101469.16;;;14.00;70.00
4705;BME280;2366;51.332;6.610;2023-11-21T10:15:07;101464.53;;;14.16;69.51
4705;BME280;2366;51.332;6.610;2023-11-21T10:17:35;101467.84;;;14.34;69.32
4705;BME280;2366;51.332;6.610;2023-11-21T10:20:08;101470.75;;;14.44;69.06
4705;BME280;2366;51.332;6.610;2023-11-21T10:22:43;101476.66;;;14.49;69.00
4705;BME280;2366;51.332;6.610;2023-11-21T10:25:09;101479.50;;;14.60;68.93
4705;BME280;2366;51.332;6.610;2023-11-21T10:27:36;101477.94;;;14.70;68.26
4705;BME280;2366;51.332;6.610;2023-11-21T10:30:02;101475.69;;;14.64;67.22
4705;BME280;2366;51.332;6.610;2023-11-21T10:32:29;101476.66;;;14.49;68.14
4705;BME280;2366;51.332;6.610;2023-11-21T10:34:58;101482.47;;;14.55;68.06
4705;BME280;2366;51.332;6.610;2023-11-21T10:37:32;101474.53;;;14.68;68.12
4705;BME280;2366;51.332;6.610;2023-11-21T10:39:58;101486.00;;;14.56;67.32
4705;BME280;2366;51.332;6.610;2023-11-21T10:42:24;101486.66;;;14.45;68.42
4705;BME280;2366;51.332;6.610;2023-11-21T10:44:50;101493.38;;;14.65;68.87
4705;BME280;2366;51.332;6.610;2023-11-21T10:47:17;101494.84;;;14.84;68.48
4705;BME280;2366;51.332;6.610;2023-11-21T10:49:44;101495.63;;;14.98;67.91
4705;BME280;2366;51.332;6.610;2023-11-21T10:52:12;101498.63;;;15.19;66.81
4705;BME280;2366;51.332;6.610;2023-11-21T10:54:43;101498.44;;;15.23;66.31
4705;BME280;2366;51.332;6.610;2023-11-21T10:57:09;101499.19;;;15.25;65.64
4705;BME280;2366;51.332;6.610;2023-11-21T10:59:36;101496.16;;;15.04;65.04
4705;BME280;2366;51.332;6.610;2023-11-21T11:02:10;101506.94;;;15.02;66.29
4705;BME280;2366;51.332;6.610;2023-11-21T11:04:41;101503.50;;;15.00;65.74
4705;BME280;2366;51.332;6.610;2023-11-21T11:07:08;101501.72;;;15.13;66.30
4705;BME280;2366;51.332;6.610;2023-11-21T11:09:37;101506.88;;;15.29;65.76
4705;BME280;2366;51.332;6.610;2023-11-21T11:12:03;101504.84;;;15.07;65.45
4705;BME280;2366;51.332;6.610;2023-11-21T11:14:30;101499.69;;;15.04;66.87
4705;BME280;2366;51.332;6.610;2023-11-21T11:16:55;101504.28;;;15.15;65.97
4705;BME280;2366;51.332;6.610;2023-11-21T11:19:25;101506.47;;;15.23;66.00
4705;BME280;2366;51.332;6.610;2023-11-21T11:24:36;101512.97;;;15.18;65.59
4705;BME280;2366;51.332;6.610;2023-11-21T11:30:16;101520.84;;;15.20;66.31
4705;BME280;2366;51.332;6.610;2023-11-21T11:35:34;101515.34;;;15.61;65.98
4705;BME280;2366;51.332;6.610;2023-11-21T11:38:03;101517.06;;;15.75;65.71
4705;BME280;2366;51.332;6.610;2023-11-21T11:40:41;101520.97;;;15.70;64.67
4705;BME280;2366;51.332;6.610;2023-11-21T11:43:08;101525.16;;;15.61;65.72
4705;BME280;2366;51.332;6.610;2023-11-21T11:45:34;101521.44;;;15.64;64.80
4705;BME280;2366;51.332;6.610;2023-11-21T11:48:01;101515.09;;;15.39;65.31
4705;BME280;2366;51.332;6.610;2023-11-21T11:50:27;101529.44;;;15.38;66.35
4705;BME280;2366;51.332;6.610;2023-11-21T11:52:53;101536.06;;;15.45;65.94
4705;BME280;2366;51.332;6.610;2023-11-21T11:55:21;101526.22;;;15.33;65.52
4705;BME280;2366;51.332;6.610;2023-11-21T11:57:49;101528.25;;;15.16;66.12
4705;BME280;2366;51.332;6.610;2023-11-21T12:00:17;101536.09;;;14.92;67.11
4705;BME280;2366;51.332;6.610;2023-11-21T12:02:54;101540.00;;;14.87;67.62
4705;BME280;2366;51.332;6.610;2023-11-21T12:05:21;101542.81;;;14.98;68.04
4705;BME280;2366;51.332;6.610;2023-11-21T12:07:50;101534.09;;;15.22;67.33
4705;BME280;2366;51.332;6.610;2023-11-21T12:10:22;101540.75;;;15.16;66.46
4705;BME280;2366;51.332;6.610;2023-11-21T12:13:00;101532.81;;;15.14;66.97
4705;BME280;2366;51.332;6.610;2023-11-21T12:15:26;101544.69;;;14.83;67.68
4705;BME280;2366;51.332;6.610;2023-11-21T12:17:55;101534.56;;;14.61;68.49
4705;BME280;2366;51.332;6.610;2023-11-21T12:20:23;101537.59;;;14.69;68.39
4705;BME280;2366;51.332;6.610;2023-11-21T12:22:53;101541.41;;;14.65;67.84
4705;BME280;2366;51.332;6.610;2023-11-21T12:27:47;101550.19;;;14.67;68.76
4705;BME280;2366;51.332;6.610;2023-11-21T12:30:15;101554.00;;;14.63;68.46
4705;BME280;2366;51.332;6.610;2023-11-21T12:32:43;101559.25;;;14.50;69.61
4705;BME280;2366;51.332;6.610;2023-11-21T12:35:09;101564.03;;;14.60;69.42
4705;BME280;2366;51.332;6.610;2023-11-21T12:37:37;101560.75;;;14.96;69.51
4705;BME280;2366;51.332;6.610;2023-11-21T12:40:08;101566.38;;;15.18;68.47
4705;BME280;2366;51.332;6.610;2023-11-21T12:42:36;101556.28;;;15.49;68.16
4705;BME280;2366;51.332;6.610;2023-11-21T12:48:06;101565.19;;;16.01;66.37
4705;BME280;2366;51.332;6.610;2023-11-21T12:50:37;101565.72;;;15.93;65.49
4705;BME280;2366;51.332;6.610;2023-11-21T12:53:07;101565.84;;;15.79;66.41
4705;BME280;2366;51.332;6.610;2023-11-21T12:55:41;101568.50;;;15.79;66.65
4705;BME280;2366;51.332;6.610;2023-11-21T12:58:08;101579.03;;;15.68;66.49
4705;BME280;2366;51.332;6.610;2023-11-21T13:00:35;101581.63;;;15.69;66.02
4705;BME280;2366;51.332;6.610;2023-11-21T13:03:07;101590.66;;;15.28;66.72
4705;BME280;2366;51.332;6.610;2023-11-21T13:05:35;101588.09;;;15.27;67.55
4705;BME280;2366;51.332;6.610;2023-11-21T13:08:04;101588.22;;;15.38;67.56
4705;BME280;2366;51.332;6.610;2023-11-21T13:10:33;101592.09;;;15.47;67.64
4705;BME280;2366;51.332;6.610;2023-11-21T13:13:02;101598.03;;;15.25;67.00
4705;BME280;2366;51.332;6.610;2023-11-21T13:15:31;101596.44;;;14.95;68.35
4705;BME280;2366;51.332;6.610;2023-11-21T13:17:57;101595.84;;;14.63;69.46
4705;BME280;2366;51.332;6.610;2023-11-21T13:20:26;101592.50;;;14.73;69.64
4705;BME280;2366;51.332;6.610;2023-11-21T13:22:54;101599.66;;;14.73;69.08